Time;durP1;ratioP1;P1;durP2;ratioP2;P2;SDS_P1;SDS_P2;PMS_P1;PMS_P2;Temp;Humidity;BMP_temperature;BMP_pressure;BME280_temperature;BME280_humidity;BME280_pressure;Samples;Min_cycle;Max_cycle;Signal;HPM_P1;HPM_P2
2023/04/25 00:00:29;;;;;;;;;;;22.00;81.50;;;;;;5114155;28;19916;-52
2023/04/25 00:02:58;;;;;;;;;;;22.10;81.40;;;;;;5114389;28;19907;-53
2023/04/25 00:05:24;;;;;;;;;;;22.00;81.20;;;;;;5114390;28;19915;-53
2023/04/25 00:07:50;;;;;;;;;;;22.00;81.20;;;;;;5114065;27;19912;-54
2023/04/25 00:10:15;;;;;;;;;;;21.90;81.10;;;;;;5114055;28;19908;-56
2023/04/25 00:12:41;;;;;;;;;;;21.90;81.20;;;;;;5114588;28;20278;-53
2023/04/25 00:15:07;;;;;;;;;;;21.90;81.30;;;;;;5114287;28;19908;-55
2023/04/25 00:17:34;;;;;;;;;;;21.80;81.40;;;;;;5114321;28;19912;-55
2023/04/25 00:20:00;;;;;;;;;;;21.80;81.50;;;;;;5114584;28;19916;-54
2023/04/25 00:22:25;;;;;;;;;;;21.80;81.60;;;;;;5114234;28;19962;-53
2023/04/25 00:24:53;;;;;;;;;;;21.70;81.70;;;;;;5114254;28;20430;-51
2023/04/25 00:27:18;;;;;;;;;;;21.70;81.90;;;;;;5114275;28;19912;-55
2023/04/25 00:29:44;;;;;;;;;;;21.70;82.10;;;;;;5114214;28;20412;-54
2023/04/25 00:32:10;;;;;;;;;;;21.60;82.20;;;;;;5114115;28;19919;-54
2023/04/25 00:34:35;;;;;;;;;;;21.70;82.40;;;;;;5114469;28;20262;-52
2023/04/25 00:37:04;;;;;;;;;;;21.70;82.30;;;;;;5114012;28;20373;-55
2023/04/25 00:39:30;;;;;;;;;;;21.80;82.30;;;;;;5116851;28;19916;-56
2023/04/25 00:41:55;;;;;;;;;;;21.90;82.10;;;;;;5118084;28;19908;-54
2023/04/25 00:44:21;;;;;;;;;;;22.00;81.90;;;;;;5118012;28;20285;-53
2023/04/25 00:46:50;;;;;;;;;;;22.20;82.10;;;;;;5117541;28;20357;-54
2023/04/25 00:49:16;;;;;;;;;;;22.20;81.20;;;;;;5117716;28;19957;-50
2023/04/25 00:51:43;;;;;;;;;;;22.30;81.10;;;;;;5117795;27;19907;-51
2023/04/25 00:54:09;;;;;;;;;;;22.30;81.00;;;;;;5117470;28;19915;-52
2023/04/25 00:56:35;;;;;;;;;;;22.20;81.00;;;;;;5117646;28;19912;-55
2023/04/25 00:59:01;;;;;;;;;;;22.20;80.90;;;;;;5117658;28;19912;-54
2023/04/25 01:01:26;;;;;;;;;;;22.20;81.00;;;;;;5117617;28;19908;-53
2023/04/25 01:03:53;;;;;;;;;;;22.10;81.10;;;;;;5117223;28;19915;-53
2023/04/25 01:06:18;;;;;;;;;;;22.10;81.10;;;;;;5117466;28;19914;-52
2023/04/25 01:08:44;;;;;;;;;;;22.00;81.20;;;;;;5117148;28;19994;-54
2023/04/25 01:11:09;;;;;;;;;;;22.00;81.30;;;;;;5116981;28;20017;-54
2023/04/25 01:13:35;;;;;;;;;;;21.90;81.30;;;;;;5116047;28;19908;-55
2023/04/25 01:16:01;;;;;;;;;;;21.90;81.60;;;;;;5117243;28;19931;-55
2023/04/25 01:18:27;;;;;;;;;;;21.80;81.70;;;;;;5117210;27;19911;-53
2023/04/25 01:20:52;;;;;;;;;;;21.80;82.40;;;;;;5117174;27;20295;-53
2023/04/25 01:23:19;;;;;;;;;;;21.70;82.00;;;;;;5117184;28;19914;-55
2023/04/25 01:25:45;;;;;;;;;;;21.70;82.20;;;;;;5116790;27;20424;-53
2023/04/25 01:28:11;;;;;;;;;;;21.70;82.20;;;;;;5117088;28;19912;-53
2023/04/25 01:30:36;;;;;;;;;;;21.70;82.30;;;;;;5116715;28;19907;-53
2023/04/25 01:33:04;;;;;;;;;;;21.80;82.30;;;;;;5116683;28;19960;-54
2023/04/25 01:35:29;;;;;;;;;;;21.80;82.10;;;;;;5116857;28;19914;-55
2023/04/25 01:37:55;;;;;;;;;;;21.90;82.00;;;;;;5116786;28;19912;-52
2023/04/25 01:40:21;;;;;;;;;;;22.10;81.80;;;;;;5116821;28;19919;-55
2023/04/25 01:42:46;;;;;;;;;;;22.10;81.60;;;;;;5116947;28;20006;-54
2023/04/25 01:45:12;;;;;;;;;;;22.20;81.40;;;;;;5116782;28;19953;-53
2023/04/25 01:47:39;;;;;;;;;;;22.20;81.20;;;;;;5116692;28;19908;-55
2023/04/25 01:50:05;;;;;;;;;;;22.20;81.10;;;;;;5116283;27;19908;-56
2023/04/25 01:52:31;;;;;;;;;;;22.10;81.10;;;;;;5116327;28;19942;-51
2023/04/25 01:54:57;;;;;;;;;;;22.10;80.90;;;;;;5116250;28;19957;-55
2023/04/25 01:57:22;;;;;;;;;;;22.00;80.90;;;;;;5116272;28;20321;-52
2023/04/25 01:59:48;;;;;;;;;;;22.00;81.00;;;;;;5116816;28;19915;-51
2023/04/25 02:02:14;;;;;;;;;;;22.00;81.20;;;;;;5115116;28;19907;-55
2023/04/25 02:04:39;;;;;;;;;;;21.90;81.40;;;;;;5116350;28;20336;-52
2023/04/25 02:07:05;;;;;;;;;;;21.90;81.50;;;;;;5116032;28;19912;-55
2023/04/25 02:09:30;;;;;;;;;;;21.90;81.70;;;;;;5116633;28;19961;-54
2023/04/25 02:11:56;;;;;;;;;;;21.80;81.80;;;;;;5116241;28;19954;-51
2023/04/25 02:14:21;;;;;;;;;;;21.80;82.00;;;;;;5116200;28;19908;-55
2023/04/25 02:16:47;;;;;;;;;;;21.70;82.20;;;;;;5116049;27;19952;-55
2023/04/25 02:19:12;;;;;;;;;;;21.70;82.30;;;;;;5116036;28;19911;-51
2023/04/25 02:21:38;;;;;;;;;;;21.70;82.40;;;;;;5115989;28;19987;-54
2023/04/25 02:24:03;;;;;;;;;;;21.60;82.30;;;;;;5115950;27;19908;-51
2023/04/25 02:26:29;;;;;;;;;;;21.60;82.40;;;;;;5116274;28;20271;-55
2023/04/25 02:28:56;;;;;;;;;;;21.60;82.40;;;;;;5115456;28;19907;-54
2023/04/25 02:31:21;;;;;;;;;;;21.70;82.40;;;;;;5115946;28;20368;-56
2023/04/25 02:33:47;;;;;;;;;;;21.80;82.30;;;;;;5115465;28;20431;-55
2023/04/25 02:36:12;;;;;;;;;;;21.90;82.00;;;;;;5115678;28;20362;-51
2023/04/25 02:38:38;;;;;;;;;;;22.00;81.80;;;;;;5115678;27;19959;-56
2023/04/25 02:41:04;;;;;;;;;;;22.10;81.60;;;;;;5115659;28;20247;-55
2023/04/25 02:43:30;;;;;;;;;;;22.10;81.30;;;;;;5115643;28;19924;-54
2023/04/25 02:45:55;;;;;;;;;;;22.20;81.10;;;;;;5115480;27;19908;-54
2023/04/25 02:48:20;;;;;;;;;;;22.10;80.90;;;;;;5115414;28;19908;-55
2023/04/25 02:50:46;;;;;;;;;;;22.10;80.60;;;;;;5115160;28;19999;-54
2023/04/25 02:53:11;;;;;;;;;;;22.10;80.50;;;;;;5115381;28;19908;-54
2023/04/25 02:55:37;;;;;;;;;;;22.10;80.50;;;;;;5115265;28;20006;-55
2023/04/25 02:58:02;;;;;;;;;;;22.00;80.70;;;;;;5115353;28;19941;-54
2023/04/25 03:00:28;;;;;;;;;;;22.00;80.90;;;;;;5114893;28;20002;-52
2023/04/25 03:02:53;;;;;;;;;;;21.90;81.00;;;;;;5114643;28;19908;-53
2023/04/25 03:05:19;;;;;;;;;;;21.90;81.10;;;;;;5115092;28;19908;-55
2023/04/25 03:07:45;;;;;;;;;;;21.90;81.30;;;;;;5115041;28;20018;-56
2023/04/25 03:10:11;;;;;;;;;;;21.80;81.50;;;;;;5113764;28;20328;-54
2023/04/25 03:12:36;;;;;;;;;;;21.80;81.40;;;;;;5113318;28;19933;-55
2023/04/25 03:15:03;;;;;;;;;;;21.80;81.60;;;;;;5115216;28;19908;-55
2023/04/25 03:17:28;;;;;;;;;;;21.80;81.80;;;;;;5114784;28;19919;-51
2023/04/25 03:19:54;;;;;;;;;;;21.80;81.90;;;;;;5113526;28;19912;-55
2023/04/25 03:22:19;;;;;;;;;;;21.80;81.80;;;;;;5115116;28;19911;-53
2023/04/25 03:24:45;;;;;;;;;;;21.90;81.80;;;;;;5115098;28;19930;-56
2023/04/25 03:27:10;;;;;;;;;;;22.00;81.50;;;;;;5114637;28;19908;-53
2023/04/25 03:29:36;;;;;;;;;;;22.20;81.30;;;;;;5114320;28;19919;-55
2023/04/25 03:32:01;;;;;;;;;;;22.20;81.00;;;;;;5114400;28;19912;-53
2023/04/25 03:34:27;;;;;;;;;;;22.20;80.80;;;;;;5114348;28;20355;-54
2023/04/25 03:36:52;;;;;;;;;;;22.20;80.80;;;;;;5114444;27;19912;-53
2023/04/25 03:39:18;;;;;;;;;;;22.20;80.80;;;;;;5114546;28;20346;-53
2023/04/25 03:41:43;;;;;;;;;;;22.20;80.80;;;;;;5113271;28;19915;-53
2023/04/25 03:44:08;;;;;;;;;;;22.20;80.90;;;;;;5114630;28;19919;-54
2023/04/25 03:46:34;;;;;;;;;;;22.10;81.00;;;;;;5114472;28;20002;-54
2023/04/25 03:48:59;;;;;;;;;;;22.00;81.10;;;;;;5114474;28;20332;-54
2023/04/25 03:51:25;;;;;;;;;;;22.00;81.20;;;;;;5114471;28;19954;-56
2023/04/25 03:53:51;;;;;;;;;;;21.90;81.20;;;;;;5114134;28;20001;-52
2023/04/25 03:56:16;;;;;;;;;;;21.90;81.10;;;;;;5114018;28;19960;-55
2023/04/25 03:58:42;;;;;;;;;;;21.80;80.80;;;;;;5114389;28;19999;-56
2023/04/25 04:01:08;;;;;;;;;;;21.80;80.70;;;;;;5114041;28;19938;-56
2023/04/25 04:03:35;;;;;;;;;;;21.80;80.60;;;;;;5114301;28;20313;-55
2023/04/25 04:06:01;;;;;;;;;;;21.70;80.60;;;;;;5114282;28;19931;-51
2023/04/25 04:08:27;;;;;;;;;;;21.70;80.70;;;;;;5114369;28;20363;-54
2023/04/25 04:10:52;;;;;;;;;;;21.70;80.70;;;;;;5113951;28;20321;-55
2023/04/25 04:13:17;;;;;;;;;;;21.80;80.80;;;;;;5116591;28;19907;-55
2023/04/25 04:15:43;;;;;;;;;;;22.00;80.50;;;;;;5118625;28;19908;-55
2023/04/25 04:18:08;;;;;;;;;;;22.10;80.40;;;;;;5117998;28;20010;-55
2023/04/25 04:20:34;;;;;;;;;;;22.20;80.30;;;;;;5118291;28;20002;-54
2023/04/25 04:22:59;;;;;;;;;;;22.30;80.10;;;;;;5118000;28;19911;-54
2023/04/25 04:25:25;;;;;;;;;;;22.30;80.00;;;;;;5118142;28;19907;-56
2023/04/25 04:27:54;;;;;;;;;;;22.30;80.20;;;;;;5118224;28;19930;-52
2023/04/25 04:30:21;;;;;;;;;;;22.20;80.30;;;;;;5117981;28;19955;-54
2023/04/25 04:32:48;;;;;;;;;;;22.20;80.30;;;;;;5117710;28;19915;-54
2023/04/25 04:35:14;;;;;;;;;;;22.10;80.60;;;;;;5118325;28;19908;-53
2023/04/25 04:37:39;;;;;;;;;;;22.10;80.70;;;;;;5117592;28;20373;-55
2023/04/25 04:40:07;;;;;;;;;;;22.00;80.90;;;;;;5117953;28;20007;-53
2023/04/25 04:42:32;;;;;;;;;;;22.00;81.10;;;;;;5117657;28;19920;-55
2023/04/25 04:44:58;;;;;;;;;;;21.90;81.10;;;;;;5117644;28;20290;-55
2023/04/25 04:47:25;;;;;;;;;;;21.80;81.00;;;;;;5117917;28;20350;-55
2023/04/25 04:49:51;;;;;;;;;;;21.80;81.00;;;;;;5117803;28;19912;-54
2023/04/25 04:52:18;;;;;;;;;;;21.70;81.00;;;;;;5116976;28;20292;-54
2023/04/25 04:54:43;;;;;;;;;;;21.70;80.90;;;;;;5117631;28;19947;-55
2023/04/25 04:57:09;;;;;;;;;;;21.70;81.00;;;;;;5117597;28;19919;-54
2023/04/25 04:59:35;;;;;;;;;;;21.70;81.10;;;;;;5117419;28;20002;-55
2023/04/25 05:02:00;;;;;;;;;;;21.70;81.20;;;;;;5117525;28;19999;-55
2023/04/25 05:04:26;;;;;;;;;;;21.70;81.30;;;;;;5117261;28;20007;-54
2023/04/25 05:06:51;;;;;;;;;;;21.90;81.30;;;;;;5117387;28;19953;-54
2023/04/25 05:09:18;;;;;;;;;;;22.00;81.30;;;;;;5117305;28;19908;-54
2023/04/25 05:11:44;;;;;;;;;;;22.10;81.00;;;;;;5117292;28;20266;-54
2023/04/25 05:14:09;;;;;;;;;;;22.20;80.70;;;;;;5117228;28;19923;-53
2023/04/25 05:16:35;;;;;;;;;;;22.20;80.40;;;;;;5115633;28;19915;-54
2023/04/25 05:19:00;;;;;;;;;;;22.30;80.40;;;;;;5116759;28;19912;-54
2023/04/25 05:21:27;;;;;;;;;;;22.30;80.30;;;;;;5116024;28;19926;-56
2023/04/25 05:23:53;;;;;;;;;;;22.20;80.40;;;;;;5116171;28;19915;-54
2023/04/25 05:26:18;;;;;;;;;;;22.20;80.50;;;;;;5116893;28;19908;-56
2023/04/25 05:28:44;;;;;;;;;;;22.10;80.70;;;;;;5115612;28;19915;-51
2023/04/25 05:31:10;;;;;;;;;;;22.00;80.70;;;;;;5116876;28;19991;-54
2023/04/25 05:33:35;;;;;;;;;;;22.00;80.80;;;;;;5116863;28;19907;-55
2023/04/25 05:36:01;;;;;;;;;;;22.00;81.00;;;;;;5116667;28;19998;-56
2023/04/25 05:38:26;;;;;;;;;;;21.90;81.10;;;;;;5116433;28;19918;-55
2023/04/25 05:40:52;;;;;;;;;;;21.80;81.00;;;;;;5116399;28;20429;-56
2023/04/25 05:43:17;;;;;;;;;;;21.80;81.10;;;;;;5116639;28;20367;-55
2023/04/25 05:45:43;;;;;;;;;;;21.70;81.20;;;;;;5116581;28;19912;-55
2023/04/25 05:48:08;;;;;;;;;;;21.70;81.40;;;;;;5115992;28;19908;-53
2023/04/25 05:50:34;;;;;;;;;;;21.70;81.50;;;;;;5116685;28;20351;-53
2023/04/25 05:52:59;;;;;;;;;;;21.60;81.50;;;;;;5116017;27;19912;-55
2023/04/25 05:55:25;;;;;;;;;;;21.60;81.70;;;;;;5116163;28;19915;-55
2023/04/25 05:57:50;;;;;;;;;;;21.60;81.70;;;;;;5115843;28;19964;-56
2023/04/25 06:00:16;;;;;;;;;;;21.60;81.60;;;;;;5115692;28;19916;-57
2023/04/25 06:02:41;;;;;;;;;;;21.70;81.60;;;;;;5114620;28;20247;-57
2023/04/25 06:05:07;;;;;;;;;;;21.80;81.70;;;;;;5116055;28;19912;-54
2023/04/25 06:07:33;;;;;;;;;;;21.90;81.40;;;;;;5115676;28;19915;-56
2023/04/25 06:09:59;;;;;;;;;;;22.10;81.10;;;;;;5116115;27;19908;-53
2023/04/25 06:12:25;;;;;;;;;;;22.20;80.80;;;;;;5115916;28;19908;-55
2023/04/25 06:14:50;;;;;;;;;;;22.20;80.60;;;;;;5115654;28;19912;-54
2023/04/25 06:17:16;;;;;;;;;;;22.20;80.60;;;;;;5115736;28;19912;-54
2023/04/25 06:19:41;;;;;;;;;;;22.20;80.50;;;;;;5115211;28;20359;-55
2023/04/25 06:22:07;;;;;;;;;;;22.10;80.50;;;;;;5115253;28;19912;-56
2023/04/25 06:24:33;;;;;;;;;;;22.10;80.70;;;;;;5115100;28;19908;-54
2023/04/25 06:26:58;;;;;;;;;;;22.00;80.60;;;;;;5115217;28;20346;-57
2023/04/25 06:29:24;;;;;;;;;;;22.00;80.50;;;;;;5115562;28;19908;-54
2023/04/25 06:31:49;;;;;;;;;;;21.90;80.40;;;;;;5115911;28;19934;-54
2023/04/25 06:34:15;;;;;;;;;;;21.90;80.50;;;;;;5115608;28;20274;-57
2023/04/25 06:36:41;;;;;;;;;;;21.90;80.60;;;;;;5114110;28;19912;-55
2023/04/25 06:39:06;;;;;;;;;;;21.80;80.70;;;;;;5115002;28;19919;-56
2023/04/25 06:41:32;;;;;;;;;;;21.80;81.00;;;;;;5115063;28;19908;-55
2023/04/25 06:43:57;;;;;;;;;;;21.70;81.10;;;;;;5113590;28;20440;-56
2023/04/25 06:46:23;;;;;;;;;;;21.70;81.30;;;;;;5115227;28;19914;-57
2023/04/25 06:48:48;;;;;;;;;;;21.70;81.60;;;;;;5115436;28;19956;-56
2023/04/25 06:51:14;;;;;;;;;;;21.60;81.60;;;;;;5115164;28;19908;-57
2023/04/25 06:53:39;;;;;;;;;;;21.60;81.80;;;;;;5115027;28;19976;-55
2023/04/25 06:56:05;;;;;;;;;;;21.60;81.90;;;;;;5113866;28;19915;-57
2023/04/25 06:58:31;;;;;;;;;;;21.50;81.90;;;;;;5114780;28;19957;-56
2023/04/25 07:00:56;;;;;;;;;;;21.60;82.00;;;;;;5114675;28;19912;-56
2023/04/25 07:03:22;;;;;;;;;;;21.60;82.00;;;;;;5115073;28;19908;-57
2023/04/25 07:05:47;;;;;;;;;;;21.70;81.90;;;;;;5114989;28;19908;-54
2023/04/25 07:08:13;;;;;;;;;;;21.70;81.80;;;;;;5114545;27;19908;-52
2023/04/25 07:10:38;;;;;;;;;;;21.80;81.60;;;;;;5113531;28;19908;-56
2023/04/25 07:13:04;;;;;;;;;;;21.90;81.40;;;;;;5113435;28;19915;-55
2023/04/25 07:15:29;;;;;;;;;;;22.00;81.20;;;;;;5114927;28;19911;-54
2023/04/25 07:17:55;;;;;;;;;;;22.00;81.00;;;;;;5114991;28;20418;-56
2023/04/25 07:20:20;;;;;;;;;;;22.00;80.90;;;;;;5114675;28;19923;-56
2023/04/25 07:22:46;;;;;;;;;;;22.00;80.90;;;;;;5114367;28;19998;-56
2023/04/25 07:25:11;;;;;;;;;;;22.00;80.90;;;;;;5114744;28;19908;-54
2023/04/25 07:27:37;;;;;;;;;;;22.00;81.00;;;;;;5114258;28;19908;-55
2023/04/25 07:30:03;;;;;;;;;;;22.00;81.10;;;;;;5114536;28;19908;-56
2023/04/25 07:32:29;;;;;;;;;;;21.90;81.10;;;;;;5113331;28;19908;-56
2023/04/25 07:34:54;;;;;;;;;;;21.90;81.20;;;;;;5114420;28;19976;-55
2023/04/25 07:37:20;;;;;;;;;;;21.80;81.30;;;;;;5114402;28;19923;-56
2023/04/25 07:39:48;;;;;;;;;;;21.80;81.50;;;;;;5114228;28;19912;-56
2023/04/25 07:42:14;;;;;;;;;;;21.70;81.50;;;;;;5114263;28;19908;-58
2023/04/25 07:44:40;;;;;;;;;;;21.70;81.60;;;;;;5114154;27;19919;-57
2023/04/25 07:47:06;;;;;;;;;;;21.70;81.60;;;;;;5113719;28;20366;-53
2023/04/25 07:49:33;;;;;;;;;;;21.70;81.70;;;;;;5114314;28;19915;-56
2023/04/25 07:51:59;;;;;;;;;;;21.70;81.60;;;;;;5114388;28;20275;-56
2023/04/25 07:54:25;;;;;;;;;;;21.70;81.70;;;;;;5114363;28;19960;-57
2023/04/25 07:56:50;;;;;;;;;;;21.70;81.60;;;;;;5114119;28;19974;-53
2023/04/25 07:59:16;;;;;;;;;;;21.80;81.60;;;;;;5114362;28;19912;-56
2023/04/25 08:01:41;;;;;;;;;;;21.90;81.40;;;;;;5113774;28;19912;-56
2023/04/25 08:04:07;;;;;;;;;;;21.90;81.20;;;;;;5114344;28;19961;-56
2023/04/25 08:06:32;;;;;;;;;;;22.10;81.00;;;;;;5114070;28;19952;-56
2023/04/25 08:08:58;;;;;;;;;;;22.20;80.80;;;;;;5113982;28;19915;-50
2023/04/25 08:11:23;;;;;;;;;;;22.30;80.70;;;;;;5113987;28;19915;-52
2023/04/25 08:13:49;;;;;;;;;;;22.30;80.30;;;;;;5114131;28;19914;-54
2023/04/25 08:16:14;;;;;;;;;;;22.40;80.20;;;;;;5114171;28;19961;-57
2023/04/25 08:18:40;;;;;;;;;;;22.50;80.20;;;;;;5113622;28;19916;-56
2023/04/25 08:21:06;;;;;;;;;;;22.50;79.90;;;;;;5112868;28;19919;-55
2023/04/25 08:23:32;;;;;;;;;;;22.60;79.80;;;;;;5113911;28;19907;-56
2023/04/25 08:25:57;;;;;;;;;;;22.60;79.80;;;;;;5114115;28;19915;-54
2023/04/25 08:28:22;;;;;;;;;;;22.60;79.80;;;;;;5113736;28;19944;-55
2023/04/25 08:30:48;;;;;;;;;;;22.50;79.80;;;;;;5114062;28;19916;-56
2023/04/25 08:33:14;;;;;;;;;;;22.50;79.80;;;;;;5114019;28;19964;-56
2023/04/25 08:35:39;;;;;;;;;;;22.50;79.90;;;;;;5113661;28;19915;-55
2023/04/25 08:38:05;;;;;;;;;;;22.50;80.00;;;;;;5112583;28;19911;-54
2023/04/25 08:40:33;;;;;;;;;;;22.50;80.10;;;;;;5113850;28;19912;-55
2023/04/25 08:43:00;;;;;;;;;;;22.40;80.10;;;;;;5112312;28;19919;-55
2023/04/25 08:45:27;;;;;;;;;;;22.40;80.20;;;;;;5113696;28;20006;-55
2023/04/25 08:47:53;;;;;;;;;;;22.30;80.30;;;;;;5113608;28;19915;-54
2023/04/25 08:50:21;;;;;;;;;;;22.30;80.90;;;;;;5113553;28;19995;-54
2023/04/25 08:52:46;;;;;;;;;;;22.30;80.50;;;;;;5113812;28;19998;-56
2023/04/25 08:55:12;;;;;;;;;;;22.20;80.50;;;;;;5113525;28;19951;-53
2023/04/25 08:57:39;;;;;;;;;;;22.20;80.60;;;;;;5113767;28;19934;-54
2023/04/25 09:00:05;;;;;;;;;;;22.20;80.70;;;;;;5115899;28;20274;-56
2023/04/25 09:02:30;;;;;;;;;;;22.20;80.70;;;;;;5117525;28;19918;-55
2023/04/25 09:04:57;;;;;;;;;;;22.20;80.80;;;;;;5117202;28;19915;-54
2023/04/25 09:07:22;;;;;;;;;;;22.20;80.80;;;;;;5117155;28;19908;-56
2023/04/25 09:09:48;;;;;;;;;;;22.20;80.80;;;;;;5117119;28;20358;-57
2023/04/25 09:12:13;;;;;;;;;;;22.10;80.80;;;;;;5117100;28;19908;-57
2023/04/25 09:14:39;;;;;;;;;;;22.20;80.80;;;;;;5117292;28;19908;-57
2023/04/25 09:17:07;;;;;;;;;;;22.20;80.90;;;;;;5117076;28;20356;-53
2023/04/25 09:19:35;;;;;;;;;;;22.20;80.90;;;;;;5117273;27;20373;-56
2023/04/25 09:22:04;;;;;;;;;;;22.20;80.80;;;;;;5116689;28;20015;-57
2023/04/25 09:24:30;;;;;;;;;;;22.20;80.80;;;;;;5117043;28;20354;-54
2023/04/25 09:26:56;;;;;;;;;;;22.20;80.60;;;;;;5116631;28;19939;-54
2023/04/25 09:29:28;;;;;;;;;;;22.20;80.60;;;;;;5116651;28;20025;-51
2023/04/25 09:32:10;;;;;;;;;;;22.30;80.60;;;;;;5116672;28;19907;-56
2023/04/25 09:34:58;;;;;;;;;;;22.30;80.60;;;;;;5116934;28;19915;-57
2023/04/25 09:37:25;;;;;;;;;;;22.30;80.60;;;;;;5110839;28;19912;-55
2023/04/25 09:39:55;;;;;;;;;;;22.30;80.60;;;;;;5116240;28;20340;-56
2023/04/25 09:42:24;;;;;;;;;;;22.20;80.60;;;;;;5116282;28;20277;-55
2023/04/25 09:44:51;;;;;;;;;;;22.20;80.80;;;;;;5116765;28;19912;-57
2023/04/25 09:47:17;;;;;;;;;;;22.10;80.90;;;;;;5117046;28;19912;-57
2023/04/25 09:49:43;;;;;;;;;;;22.10;81.00;;;;;;5116276;28;19958;-54
2023/04/25 09:52:13;;;;;;;;;;;22.00;81.10;;;;;;5116578;27;20002;-56
2023/04/25 09:54:38;;;;;;;;;;;22.00;81.20;;;;;;5116305;27;19936;-54
2023/04/25 09:57:11;;;;;;;;;;;22.00;81.20;;;;;;5115908;28;19912;-56
2023/04/25 09:59:38;;;;;;;;;;;22.10;81.20;;;;;;5116730;28;20434;-55
2023/04/25 10:02:04;;;;;;;;;;;22.10;81.20;;;;;;5116081;28;19912;-56
2023/04/25 10:04:30;;;;;;;;;;;22.10;81.00;;;;;;5116508;28;20038;-56
2023/04/25 10:06:56;;;;;;;;;;;22.20;81.00;;;;;;5115876;28;19908;-57
2023/04/25 10:09:24;;;;;;;;;;;22.20;80.80;;;;;;5116167;28;19914;-56
2023/04/25 10:11:50;;;;;;;;;;;22.30;80.70;;;;;;5115763;28;19907;-57
2023/04/25 10:14:16;;;;;;;;;;;22.30;80.50;;;;;;5116126;28;20354;-55
2023/04/25 10:16:41;;;;;;;;;;;22.30;80.70;;;;;;5115911;28;19915;-55
2023/04/25 10:19:07;;;;;;;;;;;22.30;80.70;;;;;;5115767;28;19968;-57
2023/04/25 10:21:33;;;;;;;;;;;22.20;80.70;;;;;;5115753;28;19961;-55
2023/04/25 10:23:59;;;;;;;;;;;22.20;80.90;;;;;;5114318;28;20411;-55
2023/04/25 10:26:25;;;;;;;;;;;22.10;80.90;;;;;;5115316;28;19908;-56
2023/04/25 10:29:04;;;;;;;;;;;22.10;81.00;;;;;;5115702;28;19912;-55
2023/04/25 10:31:30;;;;;;;;;;;22.00;81.10;;;;;;5115670;28;19959;-55
2023/04/25 10:33:56;;;;;;;;;;;22.00;81.30;;;;;;5115203;28;19914;-53
2023/04/25 10:36:22;;;;;;;;;;;21.90;81.30;;;;;;5115628;28;20370;-55
2023/04/25 10:38:50;;;;;;;;;;;21.90;81.50;;;;;;5115486;28;19912;-56
2023/04/25 10:41:18;;;;;;;;;;;21.80;81.50;;;;;;5115216;28;19947;-56
2023/04/25 10:43:44;;;;;;;;;;;21.80;81.60;;;;;;5115141;28;19919;-52
2023/04/25 10:46:13;;;;;;;;;;;21.80;81.70;;;;;;5115328;28;20411;-56
2023/04/25 10:48:43;;;;;;;;;;;21.80;81.60;;;;;;5114935;28;19908;-54
2023/04/25 10:51:09;;;;;;;;;;;21.80;81.70;;;;;;5114877;28;19907;-57
2023/04/25 10:53:35;;;;;;;;;;;21.80;81.50;;;;;;5115013;28;19912;-55
2023/04/25 10:56:08;;;;;;;;;;;21.90;81.50;;;;;;5115127;28;19911;-55
2023/04/25 10:58:34;;;;;;;;;;;21.90;81.40;;;;;;5114989;28;19915;-56
2023/04/25 11:01:00;;;;;;;;;;;22.00;81.20;;;;;;5115198;28;19922;-54
2023/04/25 11:03:26;;;;;;;;;;;22.10;81.10;;;;;;5114751;28;20332;-55
2023/04/25 11:05:52;;;;;;;;;;;22.10;80.90;;;;;;5114514;28;19907;-56
2023/04/25 11:08:22;;;;;;;;;;;22.10;80.70;;;;;;5114904;28;19908;-54
2023/04/25 11:10:47;;;;;;;;;;;22.10;80.70;;;;;;5115014;28;19907;-54
2023/04/25 11:13:14;;;;;;;;;;;22.10;80.70;;;;;;5114785;28;19908;-57
2023/04/25 11:15:39;;;;;;;;;;;22.10;80.80;;;;;;5114725;28;20007;-56
2023/04/25 11:18:06;;;;;;;;;;;22.10;81.00;;;;;;5114681;28;19954;-55
2023/04/25 11:20:31;;;;;;;;;;;22.00;80.80;;;;;;5114494;28;20441;-57
2023/04/25 11:22:58;;;;;;;;;;;22.00;81.10;;;;;;5114062;28;19947;-55
2023/04/25 11:25:24;;;;;;;;;;;21.90;81.10;;;;;;5114257;28;19908;-57
2023/04/25 11:27:50;;;;;;;;;;;21.90;81.80;;;;;;5114408;28;19915;-57
2023/04/25 11:30:15;;;;;;;;;;;21.80;81.40;;;;;;5114660;28;19908;-56
2023/04/25 11:32:42;;;;;;;;;;;21.80;81.50;;;;;;5113395;28;19907;-54
2023/04/25 11:35:08;;;;;;;;;;;21.80;81.50;;;;;;5114498;28;19912;-56
2023/04/25 11:37:34;;;;;;;;;;;21.70;81.50;;;;;;5114126;28;19912;-54
2023/04/25 11:40:00;;;;;;;;;;;21.70;81.50;;;;;;5114233;28;20007;-56
2023/04/25 11:42:25;;;;;;;;;;;21.70;81.50;;;;;;5114220;28;20313;-56
2023/04/25 11:44:51;;;;;;;;;;;21.70;81.40;;;;;;5114412;28;19908;-57
2023/04/25 11:47:16;;;;;;;;;;;21.70;81.30;;;;;;5114604;28;19912;-57
2023/04/25 11:49:42;;;;;;;;;;;21.80;81.30;;;;;;5114173;28;19908;-56
2023/04/25 11:52:07;;;;;;;;;;;21.90;80.70;;;;;;5114134;28;19918;-53
2023/04/25 11:54:36;;;;;;;;;;;21.90;80.50;;;;;;5114164;28;19930;-56
2023/04/25 11:57:03;;;;;;;;;;;21.90;80.60;;;;;;5114010;28;19912;-54
2023/04/25 11:59:28;;;;;;;;;;;22.00;80.30;;;;;;5113918;28;20276;-55
2023/04/25 12:01:54;;;;;;;;;;;22.10;80.30;;;;;;5114329;28;19998;-57
2023/04/25 12:04:23;;;;;;;;;;;22.10;80.30;;;;;;5114208;28;19907;-57
2023/04/25 12:06:53;;;;;;;;;;;22.10;80.10;;;;;;5112886;28;19907;-56
2023/04/25 12:09:21;;;;;;;;;;;22.10;79.80;;;;;;5113899;28;20374;-56
2023/04/25 12:11:48;;;;;;;;;;;22.20;79.50;;;;;;5114192;28;20029;-54
2023/04/25 12:14:26;;;;;;;;;;;22.30;79.60;;;;;;5113883;28;19908;-55
2023/04/25 12:16:52;;;;;;;;;;;22.30;79.50;;;;;;5113830;28;19908;-54
2023/04/25 12:19:18;;;;;;;;;;;22.30;79.60;;;;;;5114090;28;19935;-55
2023/04/25 12:21:44;;;;;;;;;;;22.30;79.40;;;;;;5114126;28;19908;-54
2023/04/25 12:24:16;;;;;;;;;;;22.30;79.50;;;;;;5114012;28;20282;-56
2023/04/25 12:26:50;;;;;;;;;;;22.30;79.50;;;;;;5113843;28;19919;-55
2023/04/25 12:29:17;;;;;;;;;;;22.30;79.80;;;;;;5113822;28;19950;-52
2023/04/25 12:31:42;;;;;;;;;;;22.30;79.80;;;;;;5114303;28;20065;-53
2023/04/25 12:34:08;;;;;;;;;;;22.30;79.90;;;;;;5115749;28;19950;-52
2023/04/25 12:36:33;;;;;;;;;;;22.30;79.90;;;;;;5117732;28;19977;-55
2023/04/25 12:39:03;;;;;;;;;;;22.30;80.00;;;;;;5117554;28;20289;-53
2023/04/25 12:41:29;;;;;;;;;;;22.30;80.00;;;;;;5116030;28;19918;-54
2023/04/25 12:43:55;;;;;;;;;;;22.30;80.00;;;;;;5117524;28;20340;-54
2023/04/25 12:46:20;;;;;;;;;;;22.30;80.10;;;;;;5117169;28;20270;-55
2023/04/25 12:48:46;;;;;;;;;;;22.30;79.90;;;;;;5117601;27;19943;-52
2023/04/25 12:51:11;;;;;;;;;;;22.30;80.00;;;;;;5117440;27;19908;-55
2023/04/25 12:53:38;;;;;;;;;;;22.30;79.90;;;;;;5117148;28;20333;-54
2023/04/25 12:56:04;;;;;;;;;;;22.30;79.90;;;;;;5117296;28;20044;-55
2023/04/25 12:58:30;;;;;;;;;;;22.30;79.90;;;;;;5117283;28;19965;-53
2023/04/25 13:00:55;;;;;;;;;;;22.30;79.80;;;;;;5116102;28;19960;-55
2023/04/25 13:03:21;;;;;;;;;;;22.30;79.90;;;;;;5117193;28;20261;-53
2023/04/25 13:05:47;;;;;;;;;;;22.20;79.80;;;;;;5117161;28;19915;-55
2023/04/25 13:08:12;;;;;;;;;;;22.20;79.90;;;;;;5117361;28;19912;-52
2023/04/25 13:10:38;;;;;;;;;;;22.30;79.80;;;;;;5117270;28;19907;-55
2023/04/25 13:13:04;;;;;;;;;;;22.20;79.90;;;;;;5117139;28;20348;-54
2023/04/25 13:15:30;;;;;;;;;;;22.30;80.00;;;;;;5116889;28;20014;-56
2023/04/25 13:17:55;;;;;;;;;;;22.30;79.90;;;;;;5116985;28;20014;-53
2023/04/25 13:20:22;;;;;;;;;;;22.30;79.80;;;;;;5117055;28;20011;-55
2023/04/25 13:22:47;;;;;;;;;;;22.30;79.90;;;;;;5117144;28;19908;-54
2023/04/25 13:25:13;;;;;;;;;;;22.30;79.80;;;;;;5116909;28;19915;-54
2023/04/25 13:27:40;;;;;;;;;;;22.30;79.80;;;;;;5116442;28;19908;-53
2023/04/25 13:30:08;;;;;;;;;;;22.30;79.80;;;;;;5116548;28;20259;-55
2023/04/25 13:32:35;;;;;;;;;;;22.30;79.80;;;;;;5116426;28;20298;-54
2023/04/25 13:35:02;;;;;;;;;;;22.30;79.80;;;;;;5116485;28;19982;-55
2023/04/25 13:37:27;;;;;;;;;;;22.30;79.70;;;;;;5116600;28;19957;-54
2023/04/25 13:39:55;;;;;;;;;;;22.30;79.70;;;;;;5116890;28;19912;-55
2023/04/25 13:42:20;;;;;;;;;;;22.30;79.80;;;;;;5116351;27;20368;-55
2023/04/25 13:44:46;;;;;;;;;;;22.30;79.70;;;;;;5116480;28;19911;-56
2023/04/25 13:47:11;;;;;;;;;;;22.30;79.80;;;;;;5116911;28;19908;-55
2023/04/25 13:49:37;;;;;;;;;;;22.20;79.70;;;;;;5116301;28;19914;-56
2023/04/25 13:52:02;;;;;;;;;;;22.30;79.70;;;;;;5116048;28;19908;-55
2023/04/25 13:54:28;;;;;;;;;;;22.30;79.80;;;;;;5116420;28;19907;-56
2023/04/25 13:56:58;;;;;;;;;;;22.20;79.80;;;;;;5115795;28;20002;-55
2023/04/25 13:59:23;;;;;;;;;;;22.20;79.90;;;;;;5115728;28;19911;-55
2023/04/25 14:01:49;;;;;;;;;;;22.20;79.90;;;;;;5116236;27;20338;-54
2023/04/25 14:04:15;;;;;;;;;;;22.20;79.90;;;;;;5116164;28;19908;-54
2023/04/25 14:06:41;;;;;;;;;;;22.20;80.40;;;;;;5116182;28;20354;-55
2023/04/25 14:09:09;;;;;;;;;;;22.20;79.90;;;;;;5115530;28;19908;-54